createdAt,value
2023-03-29T00:02:03.067Z,96886.44
2023-03-29T00:04:29.517Z,96890.69
2023-03-29T00:06:55.951Z,96889.44
2023-03-29T00:09:22.353Z,96898.06
2023-03-29T00:11:48.726Z,96891.22
2023-03-29T00:14:15.060Z,96890.69
2023-03-29T00:16:41.515Z,96880.66
2023-03-29T00:19:07.913Z,96884.63
2023-03-29T00:21:34.237Z,96886.22
2023-03-29T00:24:00.582Z,96884.94
2023-03-29T00:26:26.952Z,96880.09
2023-03-29T00:28:53.290Z,96884.63
2023-03-29T00:31:19.757Z,96886.91
2023-03-29T00:33:46.164Z,96881.19
2023-03-29T00:36:12.547Z,96879.22
2023-03-29T00:38:38.921Z,96876.47
2023-03-29T00:41:05.320Z,96854.66
2023-03-29T00:43:31.670Z,96848.25
2023-03-29T00:45:58.063Z,96858.97
2023-03-29T00:48:24.460Z,96851.59
2023-03-29T00:50:50.808Z,96858.75
2023-03-29T00:53:17.147Z,96849.13
2023-03-29T00:55:43.520Z,96852.66
2023-03-29T00:58:09.877Z,96843.75
2023-03-29T01:00:36.233Z,96856.50
2023-03-29T01:03:02.675Z,96863.13
2023-03-29T01:05:29.067Z,96848.72
2023-03-29T01:07:55.445Z,96843.91
2023-03-29T01:10:21.803Z,96853.50
2023-03-29T01:12:48.183Z,96843.06
2023-03-29T01:15:14.526Z,96830.19
2023-03-29T01:17:40.877Z,96832.56
2023-03-29T01:20:07.256Z,96830.47
2023-03-29T01:22:33.643Z,96840.06
2023-03-29T01:25:00.053Z,96846.13
2023-03-29T01:27:26.452Z,96837.31
2023-03-29T01:29:52.811Z,96834.91
2023-03-29T01:32:19.160Z,96820.44
2023-03-29T01:34:45.536Z,96825.69
2023-03-29T01:37:11.938Z,96827.94
2023-03-29T01:39:38.290Z,96817.22
2023-03-29T01:42:04.669Z,96825.13
2023-03-29T01:44:31.058Z,96847.13
2023-03-29T01:46:57.440Z,96881.75
2023-03-29T01:49:23.786Z,96874.03
2023-03-29T01:51:50.160Z,96869.25
2023-03-29T01:54:16.509Z,96852.78
2023-03-29T01:56:42.931Z,96847.56
2023-03-29T01:59:09.349Z,96836.25
2023-03-29T02:01:35.728Z,96843.03
2023-03-29T02:04:02.125Z,96834.09
2023-03-29T02:06:28.516Z,96835.59
2023-03-29T02:08:54.859Z,96820.94
2023-03-29T02:11:21.191Z,96834.31
2023-03-29T02:13:47.537Z,96816.69
2023-03-29T02:16:13.964Z,96821.19
2023-03-29T02:18:40.348Z,96837.09
2023-03-29T02:21:06.728Z,96827.47
2023-03-29T02:23:33.082Z,96825.34
2023-03-29T02:25:59.506Z,96824.13
2023-03-29T02:28:25.865Z,96844.88
2023-03-29T02:30:52.228Z,96865.78
2023-03-29T02:33:18.592Z,96853.81
2023-03-29T02:35:44.998Z,96860.81
2023-03-29T02:38:11.390Z,96852.78
2023-03-29T02:40:37.832Z,96853.13
2023-03-29T02:43:04.230Z,96856.63
2023-03-29T02:45:30.644Z,96862.38
2023-03-29T02:47:57.085Z,96858.78
2023-03-29T02:50:23.481Z,96854.81
2023-03-29T02:52:49.830Z,96853.81
2023-03-29T02:55:16.202Z,96857.19
2023-03-29T02:57:42.547Z,96850.34
2023-03-29T03:00:08.931Z,96842.75
2023-03-29T03:02:35.404Z,96857.72
2023-03-29T03:05:01.827Z,96862.09
2023-03-29T03:07:28.159Z,96854.81
2023-03-29T03:09:54.499Z,96835.50
2023-03-29T03:12:20.892Z,96815.00
2023-03-29T03:14:47.290Z,96824.50
2023-03-29T03:17:13.687Z,96839.47
2023-03-29T03:19:40.054Z,96839.50
2023-03-29T03:22:06.412Z,96844.72
2023-03-29T03:24:32.816Z,96871.50
2023-03-29T03:26:59.183Z,96875.31
2023-03-29T03:29:25.536Z,96859.53
2023-03-29T03:31:53.289Z,96854.31
2023-03-29T03:34:20.340Z,96850.03
2023-03-29T03:36:46.731Z,96842.13
2023-03-29T03:39:13.084Z,96830.91
2023-03-29T03:41:39.464Z,96823.22
2023-03-29T03:44:05.844Z,96825.13
2023-03-29T03:46:32.276Z,96829.84
2023-03-29T03:48:58.661Z,96834.47
2023-03-29T03:51:25.010Z,96843.72
2023-03-29T03:53:51.384Z,96829.31
2023-03-29T03:56:17.764Z,96829.72
2023-03-29T03:58:44.218Z,96820.72
2023-03-29T04:01:10.606Z,96837.16
2023-03-29T04:03:37.064Z,96820.44
2023-03-29T04:06:03.502Z,96816.22
2023-03-29T04:08:29.847Z,96810.38
2023-03-29T04:10:56.191Z,96818.16
2023-03-29T04:13:22.565Z,96818.53
2023-03-29T04:15:48.950Z,96818.97
2023-03-29T04:18:15.426Z,96821.56
2023-03-29T04:20:41.835Z,96823.81
2023-03-29T04:23:08.176Z,96830.09
2023-03-29T04:25:34.565Z,96828.66
2023-03-29T04:28:00.911Z,96829.69
2023-03-29T04:30:27.258Z,96825.47
2023-03-29T04:32:53.690Z,96814.81
2023-03-29T04:35:20.126Z,96804.19
2023-03-29T04:37:46.507Z,96808.25
2023-03-29T04:40:12.896Z,96813.50
2023-03-29T04:42:39.236Z,96813.28
2023-03-29T04:45:05.609Z,96821.09
2023-03-29T04:47:32.065Z,96827.06
2023-03-29T04:49:58.498Z,96832.72
2023-03-29T04:52:24.952Z,96826.31
2023-03-29T04:54:51.376Z,96830.72
2023-03-29T04:57:17.778Z,96831.13
2023-03-29T04:59:44.253Z,96824.66
2023-03-29T05:02:10.754Z,96820.66
2023-03-29T05:04:37.296Z,96819.25
2023-03-29T05:07:03.660Z,96813.75
2023-03-29T05:09:29.985Z,96814.16
2023-03-29T05:11:56.310Z,96823.16
2023-03-29T05:14:22.695Z,96815.75
2023-03-29T05:16:49.047Z,96817.75
2023-03-29T05:19:15.426Z,96805.69
2023-03-29T05:21:43.741Z,96803.72
2023-03-29T05:24:11.808Z,96806.56
2023-03-29T05:26:38.161Z,96797.38
2023-03-29T05:29:04.603Z,96815.44
2023-03-29T05:31:31.034Z,96814.41
2023-03-29T05:33:57.429Z,96824.66
2023-03-29T05:36:23.775Z,96820.81
2023-03-29T05:38:50.150Z,96808.31
2023-03-29T05:41:16.500Z,96812.22
2023-03-29T05:43:42.868Z,96820.31
2023-03-29T05:46:09.288Z,96822.34
2023-03-29T05:48:35.702Z,96828.38
2023-03-29T05:51:02.289Z,96833.81
2023-03-29T05:53:28.752Z,96830.19
2023-03-29T05:55:55.125Z,96825.13
2023-03-29T05:58:21.584Z,96834.41
2023-03-29T06:00:48.075Z,96829.00
2023-03-29T06:03:20.840Z,96820.63
2023-03-29T06:05:49.652Z,96834.47
2023-03-29T06:08:16.288Z,96823.66
2023-03-29T06:10:42.689Z,96813.03
2023-03-29T06:13:09.032Z,96809.16
2023-03-29T06:15:35.379Z,96812.38
2023-03-29T06:18:01.820Z,96823.03
2023-03-29T06:20:28.185Z,96829.59
2023-03-29T06:22:54.532Z,96826.75
2023-03-29T06:25:20.908Z,96819.47
2023-03-29T06:27:47.302Z,96832.31
2023-03-29T06:30:13.651Z,96836.34
2023-03-29T06:32:40.088Z,96846.22
2023-03-29T06:35:06.517Z,96837.94
2023-03-29T06:37:32.952Z,96840.31
2023-03-29T06:39:59.302Z,96840.63
2023-03-29T06:42:25.748Z,96836.31
2023-03-29T06:44:52.124Z,96835.19
2023-03-29T06:47:18.497Z,96848.31
2023-03-29T06:49:44.887Z,96852.28
2023-03-29T06:52:11.269Z,96841.69
2023-03-29T06:54:37.621Z,96846.78
2023-03-29T06:57:04.025Z,96847.00
2023-03-29T06:59:30.394Z,96853.59
2023-03-29T07:01:56.770Z,96847.38
2023-03-29T07:04:23.280Z,96848.94
2023-03-29T07:06:49.875Z,96860.97
2023-03-29T07:09:17.162Z,96860.97
2023-03-29T07:11:45.345Z,96855.72
2023-03-29T07:14:11.687Z,96869.03
2023-03-29T07:16:38.080Z,96880.69
2023-03-29T07:19:04.467Z,96885.34
2023-03-29T07:21:30.811Z,96882.25
2023-03-29T07:23:57.225Z,96879.41
2023-03-29T07:26:28.914Z,96873.28
2023-03-29T07:28:56.408Z,96871.50
2023-03-29T07:31:22.768Z,96866.38
2023-03-29T07:33:49.243Z,96871.78
2023-03-29T07:36:15.826Z,96877.47
2023-03-29T07:38:42.239Z,96879.69
2023-03-29T07:41:08.584Z,96887.06
2023-03-29T07:43:34.974Z,96880.31
2023-03-29T07:46:01.357Z,96879.56
2023-03-29T07:48:27.751Z,96880.16
2023-03-29T07:50:54.209Z,96880.38
2023-03-29T07:53:20.702Z,96883.22
2023-03-29T07:55:47.576Z,96884.31
2023-03-29T07:58:14.223Z,96885.09
2023-03-29T08:00:40.657Z,96889.22
2023-03-29T08:03:07.109Z,96888.41
2023-03-29T08:05:40.803Z,96881.06
2023-03-29T08:08:07.978Z,96904.00
2023-03-29T08:10:34.397Z,96917.34
2023-03-29T08:13:00.771Z,96915.38
2023-03-29T08:15:27.172Z,96918.28
2023-03-29T08:17:53.699Z,96917.59
2023-03-29T08:20:20.078Z,96917.88
2023-03-29T08:22:46.427Z,96908.34
2023-03-29T08:25:12.765Z,96899.22
2023-03-29T08:27:39.125Z,96910.09
2023-03-29T08:30:05.657Z,96911.44
2023-03-29T08:32:32.090Z,96893.75
2023-03-29T08:34:58.439Z,96891.94
2023-03-29T08:37:24.775Z,96899.81
2023-03-29T08:39:51.162Z,96907.34
2023-03-29T08:42:17.502Z,96892.63
2023-03-29T08:44:43.853Z,96893.75
2023-03-29T08:47:10.199Z,96893.09
2023-03-29T08:49:36.584Z,96899.13
2023-03-29T08:52:02.984Z,96899.00
2023-03-29T08:54:29.370Z,96903.34
2023-03-29T08:56:55.797Z,96899.25
2023-03-29T08:59:22.148Z,96898.44
2023-03-29T09:01:48.765Z,96903.59
2023-03-29T09:04:15.167Z,96901.53
2023-03-29T09:06:41.521Z,96901.28
2023-03-29T09:09:07.897Z,96902.41
2023-03-29T09:11:34.246Z,96894.63
2023-03-29T09:14:00.629Z,96890.31
2023-03-29T09:16:27.078Z,96886.63
2023-03-29T09:18:53.576Z,96888.59
2023-03-29T09:21:19.968Z,96886.50
2023-03-29T09:23:46.315Z,96885.56
2023-03-29T09:26:12.702Z,96895.97
2023-03-29T09:28:39.055Z,96901.25
2023-03-29T09:31:05.539Z,96894.88
2023-03-29T09:33:31.927Z,96903.41
2023-03-29T09:35:58.370Z,96892.69
2023-03-29T09:38:24.736Z,96895.31
2023-03-29T09:40:51.145Z,96899.13
2023-03-29T09:43:17.542Z,96897.97
2023-03-29T09:45:44.030Z,96889.41
2023-03-29T09:48:10.484Z,96894.19
2023-03-29T09:50:36.904Z,96896.13
2023-03-29T09:53:03.288Z,96897.94
2023-03-29T09:55:29.652Z,96885.91
2023-03-29T09:57:56.340Z,96896.44
2023-03-29T10:00:22.729Z,96887.28
2023-03-29T10:02:50.201Z,96889.75
2023-03-29T10:05:16.578Z,96890.72
2023-03-29T10:07:42.955Z,96891.25
2023-03-29T10:10:09.305Z,96891.66
2023-03-29T10:12:35.646Z,96895.88
2023-03-29T10:15:01.973Z,96892.19
2023-03-29T10:17:28.358Z,96893.81
2023-03-29T10:19:54.708Z,96880.81
2023-03-29T10:22:21.081Z,96878.41
2023-03-29T10:24:47.512Z,96878.94
2023-03-29T10:27:13.864Z,96889.00
2023-03-29T10:29:40.209Z,96888.81
2023-03-29T10:32:06.643Z,96880.66
2023-03-29T10:34:33.069Z,96892.13
2023-03-29T10:36:59.422Z,96892.03
2023-03-29T10:39:25.813Z,96889.81
2023-03-29T10:41:52.174Z,96892.13
2023-03-29T10:44:18.561Z,96897.75
2023-03-29T10:46:44.912Z,96892.78
2023-03-29T10:49:11.263Z,96877.34
2023-03-29T10:51:37.633Z,96868.50
2023-03-29T10:54:03.999Z,96876.97
2023-03-29T10:56:30.392Z,96871.72
2023-03-29T10:58:56.750Z,96876.28
2023-03-29T11:01:23.142Z,96871.25
2023-03-29T11:03:49.605Z,96875.56
2023-03-29T11:06:16.088Z,96868.09
2023-03-29T11:08:42.457Z,96869.84
2023-03-29T11:11:08.833Z,96872.72
2023-03-29T11:13:35.180Z,96874.16
2023-03-29T11:16:01.629Z,96865.06
2023-03-29T11:18:28.008Z,96851.22
2023-03-29T11:20:54.380Z,96851.41
2023-03-29T11:23:20.731Z,96855.72
2023-03-29T11:25:47.068Z,96864.38
2023-03-29T11:28:13.453Z,96864.75
2023-03-29T11:30:39.812Z,96867.63
2023-03-29T11:33:06.229Z,96869.44
2023-03-29T11:35:32.698Z,96857.91
2023-03-29T11:37:59.093Z,96856.72
2023-03-29T11:40:25.470Z,96856.56
2023-03-29T11:42:51.828Z,96854.31
2023-03-29T11:45:18.219Z,96858.59
2023-03-29T11:47:44.627Z,96861.47
2023-03-29T11:50:11.041Z,96855.91
2023-03-29T11:52:37.431Z,96856.66
2023-03-29T11:55:03.826Z,96858.59
2023-03-29T11:57:30.266Z,96857.47
2023-03-29T11:59:56.670Z,96838.47
2023-03-29T12:02:23.071Z,96840.84
2023-03-29T12:04:49.506Z,96835.84
2023-03-29T12:07:15.886Z,96828.78
2023-03-29T12:09:42.278Z,96827.94
2023-03-29T12:12:08.625Z,96812.41
2023-03-29T12:14:35.001Z,96805.59
2023-03-29T12:17:01.481Z,96814.63
2023-03-29T12:19:27.838Z,96823.69
2023-03-29T12:21:54.220Z,96814.34
2023-03-29T12:24:20.610Z,96826.00
2023-03-29T12:26:47.021Z,96831.81
2023-03-29T12:29:13.390Z,96841.97
2023-03-29T12:31:39.790Z,96835.69
2023-03-29T12:34:06.204Z,96830.44
2023-03-29T12:36:32.540Z,96821.91
2023-03-29T12:38:58.961Z,96816.75
2023-03-29T12:41:25.305Z,96811.84
2023-03-29T12:43:51.704Z,96805.56
2023-03-29T12:46:18.146Z,96809.25
2023-03-29T12:48:44.584Z,96801.88
2023-03-29T12:51:10.941Z,96803.28
2023-03-29T12:53:37.279Z,96801.34
2023-03-29T12:56:03.807Z,96793.22
2023-03-29T12:58:30.311Z,96798.06
2023-03-29T13:00:56.720Z,96799.50
2023-03-29T13:03:23.170Z,96799.00
2023-03-29T13:05:49.588Z,96798.41
2023-03-29T13:08:15.972Z,96801.31
2023-03-29T13:10:42.380Z,96804.72
2023-03-29T13:13:08.726Z,96795.69
2023-03-29T13:15:35.143Z,96783.16
2023-03-29T13:18:01.632Z,96791.31
2023-03-29T13:20:28.060Z,96785.56
2023-03-29T13:22:54.452Z,96781.41
2023-03-29T13:25:20.810Z,96787.41
2023-03-29T13:27:47.184Z,96775.78
2023-03-29T13:30:13.568Z,96774.28
2023-03-29T13:32:40.200Z,96759.38
2023-03-29T13:35:06.641Z,96772.91
2023-03-29T13:37:33.055Z,96757.66
2023-03-29T13:39:59.444Z,96746.00
2023-03-29T13:42:25.842Z,96749.72
2023-03-29T13:44:52.259Z,96751.84
2023-03-29T13:47:18.650Z,96750.28
2023-03-29T13:49:44.994Z,96745.81
2023-03-29T13:52:11.378Z,96736.03
2023-03-29T13:54:37.732Z,96729.69
2023-03-29T13:57:04.108Z,96733.84
2023-03-29T13:59:30.490Z,96729.56
2023-03-29T14:01:56.926Z,96737.78
2023-03-29T14:04:23.343Z,96735.09
2023-03-29T14:06:49.713Z,96726.47
2023-03-29T14:09:16.042Z,96724.09
2023-03-29T14:11:42.407Z,96718.47
2023-03-29T14:14:08.790Z,96716.09
2023-03-29T14:16:35.216Z,96714.44
2023-03-29T14:19:01.657Z,96715.00
2023-03-29T14:21:28.024Z,96707.94
2023-03-29T14:23:54.405Z,96710.59
2023-03-29T14:26:20.793Z,96701.06
2023-03-29T14:28:47.167Z,96701.59
2023-03-29T14:31:13.511Z,96698.91
2023-03-29T14:33:39.896Z,96697.31
2023-03-29T14:36:06.551Z,96692.47
2023-03-29T14:38:33.165Z,96684.56
2023-03-29T14:40:59.535Z,96692.25
2023-03-29T14:43:25.922Z,96698.06
2023-03-29T14:45:52.342Z,96689.31
2023-03-29T14:48:18.748Z,96684.00
2023-03-29T14:50:45.146Z,96681.88
2023-03-29T14:53:11.493Z,96679.19
2023-03-29T14:55:37.875Z,96672.88
2023-03-29T14:58:04.259Z,96664.69
2023-03-29T15:00:30.612Z,96673.94
2023-03-29T15:02:57.139Z,96668.69
2023-03-29T15:05:25.452Z,96672.41
2023-03-29T15:07:51.997Z,96658.13
2023-03-29T15:10:18.354Z,96657.63
2023-03-29T15:12:44.752Z,96661.88
2023-03-29T15:15:11.144Z,96661.03
2023-03-29T15:17:50.197Z,96660.72
2023-03-29T15:20:18.364Z,96659.06
2023-03-29T15:22:44.709Z,96648.22
2023-03-29T15:25:11.100Z,96643.72
2023-03-29T15:27:37.445Z,96640.53
2023-03-29T15:30:03.839Z,96645.00
2023-03-29T15:32:30.280Z,96640.81
2023-03-29T15:34:56.674Z,96637.81
2023-03-29T15:37:23.073Z,96632.22
2023-03-29T15:39:49.573Z,96628.84
2023-03-29T15:42:15.922Z,96620.38
2023-03-29T15:44:42.303Z,96622.47
2023-03-29T15:47:08.704Z,96616.16
2023-03-29T15:49:35.136Z,96613.97
2023-03-29T15:52:01.486Z,96612.38
2023-03-29T15:54:27.869Z,96617.16
2023-03-29T15:56:54.365Z,96617.16
2023-03-29T15:59:20.811Z,96609.22
2023-03-29T16:01:47.254Z,96610.81
2023-03-29T16:04:13.627Z,96600.22
2023-03-29T16:06:39.979Z,96604.44
2023-03-29T16:09:06.377Z,96596.50
2023-03-29T16:11:32.732Z,96600.19
2023-03-29T16:13:59.101Z,96593.59
2023-03-29T16:16:25.708Z,96594.38
2023-03-29T16:18:52.105Z,96589.69
2023-03-29T16:21:18.506Z,96589.13
2023-03-29T16:23:44.894Z,96585.41
2023-03-29T16:26:11.242Z,96585.97
2023-03-29T16:28:37.617Z,96587.78
2023-03-29T16:31:04.002Z,96587.78
2023-03-29T16:33:30.588Z,96577.47
2023-03-29T16:35:56.999Z,96580.06
2023-03-29T16:38:23.397Z,96574.78
2023-03-29T16:40:49.734Z,96573.72
2023-03-29T16:43:16.116Z,96575.81
2023-03-29T16:45:42.561Z,96570.28
2023-03-29T16:48:09.002Z,96571.00
2023-03-29T16:50:35.407Z,96569.44
2023-03-29T16:53:01.786Z,96575.75
2023-03-29T16:55:28.121Z,96575.22
2023-03-29T16:57:54.496Z,96562.50
2023-03-29T17:00:20.874Z,96560.59
2023-03-29T17:02:47.278Z,96571.34
2023-03-29T17:05:13.657Z,96575.03
2023-03-29T17:07:39.992Z,96572.88
2023-03-29T17:10:06.342Z,96578.94
2023-03-29T17:12:32.682Z,96583.94
2023-03-29T17:14:59.031Z,96583.66
2023-03-29T17:17:25.455Z,96589.44
2023-03-29T17:19:51.849Z,96578.94
2023-03-29T17:22:18.237Z,96576.91
2023-03-29T17:24:44.626Z,96575.03
2023-03-29T17:27:11.033Z,96572.38
2023-03-29T17:29:37.426Z,96574.47
2023-03-29T17:32:03.822Z,96569.13
2023-03-29T17:34:30.287Z,96562.22
2023-03-29T17:36:56.643Z,96571.78
2023-03-29T17:39:23.027Z,96572.78
2023-03-29T17:41:49.404Z,96563.72
2023-03-29T17:44:16.020Z,96560.97
2023-03-29T17:46:42.531Z,96560.97
2023-03-29T17:49:08.925Z,96561.41
2023-03-29T17:51:35.377Z,96565.06
2023-03-29T17:54:01.771Z,96565.53
2023-03-29T17:56:28.142Z,96556.00
2023-03-29T17:58:54.476Z,96554.94
2023-03-29T18:01:20.935Z,96541.50
2023-03-29T18:03:47.365Z,96549.59
2023-03-29T18:06:13.742Z,96548.03
2023-03-29T18:08:40.087Z,96562.84
2023-03-29T18:11:06.418Z,96579.22
2023-03-29T18:13:32.785Z,96578.72
2023-03-29T18:15:59.133Z,96577.72
2023-03-29T18:18:25.471Z,96579.31
2023-03-29T18:20:51.789Z,96572.38
2023-03-29T18:23:18.220Z,96555.63
2023-03-29T18:25:44.592Z,96544.69
2023-03-29T18:28:10.976Z,96540.47
2023-03-29T18:30:37.329Z,96538.84
2023-03-29T18:33:03.778Z,96552.25
2023-03-29T18:35:30.221Z,96568.66
2023-03-29T18:37:56.590Z,96565.28
2023-03-29T18:40:22.972Z,96569.56
2023-03-29T18:42:49.376Z,96560.09
2023-03-29T18:45:15.723Z,96574.84
2023-03-29T18:47:42.121Z,96580.34
2023-03-29T18:50:08.542Z,96585.63
2023-03-29T18:52:34.897Z,96594.84
2023-03-29T18:55:01.233Z,96590.84
2023-03-29T18:57:27.637Z,96586.69
2023-03-29T18:59:54.054Z,96584.03
2023-03-29T19:02:20.535Z,96581.59
2023-03-29T19:04:46.940Z,96588.75
2023-03-29T19:07:13.309Z,96594.22
2023-03-29T19:09:39.726Z,96582.28
2023-03-29T19:12:06.078Z,96586.72
2023-03-29T19:14:32.412Z,96590.81
2023-03-29T19:16:58.964Z,96596.09
2023-03-29T19:19:25.368Z,96591.81
2023-03-29T19:21:51.759Z,96591.31
2023-03-29T19:24:18.141Z,96599.16
2023-03-29T19:26:44.598Z,96596.44
2023-03-29T19:29:11.024Z,96602.19
2023-03-29T19:31:37.399Z,96605.25
2023-03-29T19:34:03.747Z,96604.13
2023-03-29T19:36:30.127Z,96596.78
2023-03-29T19:38:56.513Z,96594.25
2023-03-29T19:41:22.852Z,96600.34
2023-03-29T19:43:49.255Z,96595.88
2023-03-29T19:46:15.796Z,96599.66
2023-03-29T19:48:42.307Z,96602.34
2023-03-29T19:51:08.783Z,96590.34
2023-03-29T19:53:38.421Z,96593.81
2023-03-29T19:56:05.485Z,96587.19
2023-03-29T19:58:31.938Z,96587.75
2023-03-29T20:00:58.296Z,96598.31
2023-03-29T20:03:24.678Z,96592.47
2023-03-29T20:05:51.049Z,96588.75
2023-03-29T20:08:17.409Z,96585.56
2023-03-29T20:10:43.779Z,96584.75
2023-03-29T20:13:10.161Z,96576.75
2023-03-29T20:15:36.520Z,96587.97
2023-03-29T20:18:03.014Z,96588.97
2023-03-29T20:20:29.398Z,96587.31
2023-03-29T20:22:55.734Z,96578.13
2023-03-29T20:25:22.078Z,96579.69
2023-03-29T20:27:48.428Z,96570.78
2023-03-29T20:30:14.775Z,96581.31
2023-03-29T20:32:41.188Z,96570.47
2023-03-29T20:35:07.606Z,96561.22
2023-03-29T20:37:33.974Z,96566.66
2023-03-29T20:40:00.354Z,96568.94
2023-03-29T20:42:26.758Z,96561.88
2023-03-29T20:44:53.145Z,96567.06
2023-03-29T20:47:19.535Z,96567.41
2023-03-29T20:49:45.916Z,96571.94
2023-03-29T20:52:12.277Z,96575.13
2023-03-29T20:54:38.756Z,96579.91
2023-03-29T20:57:05.295Z,96562.31
2023-03-29T20:59:31.707Z,96565.50
2023-03-29T21:01:58.153Z,96558.88
2023-03-29T21:04:24.598Z,96569.63
2023-03-29T21:06:50.962Z,96556.72
2023-03-29T21:09:17.364Z,96569.41
2023-03-29T21:11:43.719Z,96559.44
2023-03-29T21:14:10.127Z,96553.66
2023-03-29T21:16:36.562Z,96558.91
2023-03-29T21:19:02.922Z,96556.31
2023-03-29T21:21:29.270Z,96569.06
2023-03-29T21:23:55.639Z,96564.69
2023-03-29T21:26:22.040Z,96556.78
2023-03-29T21:28:48.392Z,96553.69
2023-03-29T21:31:14.861Z,96556.06
2023-03-29T21:33:41.275Z,96549.53
2023-03-29T21:36:07.674Z,96559.00
2023-03-29T21:38:34.081Z,96547.97
2023-03-29T21:41:00.643Z,96541.13
2023-03-29T21:43:27.271Z,96549.28
2023-03-29T21:45:53.706Z,96555.28
2023-03-29T21:48:20.045Z,96547.25
2023-03-29T21:50:46.442Z,96545.63
2023-03-29T21:53:12.825Z,96545.09
2023-03-29T21:55:39.182Z,96545.59
2023-03-29T21:58:05.581Z,96538.63
2023-03-29T22:00:31.998Z,96543.81
2023-03-29T22:02:58.443Z,96535.59
2023-03-29T22:05:24.874Z,96540.09
2023-03-29T22:07:51.220Z,96527.88
2023-03-29T22:10:17.569Z,96526.25
2023-03-29T22:12:43.907Z,96525.75
2023-03-29T22:15:10.283Z,96527.81
2023-03-29T22:17:36.689Z,96519.84
2023-03-29T22:20:03.106Z,96519.44
2023-03-29T22:22:29.474Z,96514.09
2023-03-29T22:24:55.851Z,96508.81
2023-03-29T22:27:22.252Z,96512.00
2023-03-29T22:29:48.646Z,96500.09
2023-03-29T22:32:15.121Z,96503.03
2023-03-29T22:34:41.574Z,96499.91
2023-03-29T22:37:07.947Z,96505.16
2023-03-29T22:39:34.329Z,96496.22
2023-03-29T22:42:00.731Z,96505.16
2023-03-29T22:44:27.138Z,96500.19
2023-03-29T22:46:53.533Z,96499.09
2023-03-29T22:49:19.889Z,96492.50
2023-03-29T22:51:46.280Z,96496.72
2023-03-29T22:54:12.682Z,96496.13
2023-03-29T22:56:39.077Z,96493.41
2023-03-29T22:59:05.516Z,96493.91
2023-03-29T23:01:31.923Z,96496.53
2023-03-29T23:03:58.353Z,96490.72
2023-03-29T23:06:24.754Z,96482.88
2023-03-29T23:08:51.152Z,96482.38
2023-03-29T23:11:17.544Z,96477.69
2023-03-29T23:13:43.938Z,96466.16
2023-03-29T23:16:10.343Z,96455.63
2023-03-29T23:18:36.731Z,96441.94
2023-03-29T23:21:03.344Z,96449.38
2023-03-29T23:23:29.958Z,96444.09
2023-03-29T23:25:56.338Z,96444.09
2023-03-29T23:28:22.698Z,96439.84
2023-03-29T23:30:49.126Z,96433.00
2023-03-29T23:33:15.488Z,96442.94
2023-03-29T23:35:41.883Z,96444.03
2023-03-29T23:38:08.283Z,96451.00
2023-03-29T23:40:34.634Z,96446.91
2023-03-29T23:43:01.014Z,96449.53
2023-03-29T23:45:27.361Z,96443.25
2023-03-29T23:47:53.774Z,96439.56
2023-03-29T23:50:20.142Z,96438.69
2023-03-29T23:52:46.478Z,96447.50
2023-03-29T23:55:12.877Z,96432.25
2023-03-29T23:57:39.229Z,96429.63
